Onde está Igreja Mediaval en Portugal?

Igreja Mediaval está situado na região Santarem em Portugal!

Buscar o nome de uma cidade:

Igreja de Santa Clara, Igrendi, Igreja Matriz de Santa Tereza, Igreja, Igreja Paroquial do Divino Salvador de Fervença

Aqui você vai encontrar a localização de Igreja Mediaval em um mapa.
Para ver como ele atualmente parece, abaixo estão algumas fotos da região, com webcams online.
Você também pode encontrar a distância para as principais cidades da região e de cidades do resto do Portugal.

Todos os lugares do mundo chamado .

new

Onde está Igreja Mediaval no mapa?


Webcams perto Igreja Mediaval

Benavente > North-East: AIrport, METAR: BENAV 180005Z 36004KT 17/14 Q1015.


Benavente > North-East: AIrport, METAR: BENAV 180005Z 36004KT 17/14 Q1015 - Dia
Actual
Benavente > North-East: AIrport, METAR: BENAV 180005Z 36004KT 17/14 Q1015 - Actual

Caldas da Rainha.


Caldas da Rainha - Dia
Actual
Caldas da Rainha - Actual

Lisbon > South: Rua Vasco da Gama.


Lisbon > South: Rua Vasco da Gama - Dia
Actual
Lisbon > South: Rua Vasco da Gama - Actual

Webcams provided by webcams.travel

Distâncias

Onde está Igreja Mediaval em relação a outros lugares?

Top 10 cidades em Santarem e distância de Igreja Mediaval.

Cidade#Populaçãokmmilhas
Santarém1293851610
Entroncamento2198874830
Tomar3191686339
Torres Novas4145264528
Samora Correia5141542415
Abrantes6136466641
Ourém7127296037
Rio Maior8120642314
Fátima9117985534
Almeirim10115562113

Top 10 cidades em Portugal e distância de Igreja Mediaval.

Cidade # Populaçãokmmilhas
Lisbon15177985534
Porto2249630224139
Amadora31788565534
Braga4121393269167
Setúbal51171096943
Coimbra610658012276
Queluz71033985635
Funchal8980411025637
Vila Nova de Gaia970810222138
Loures10662304528